TimeCST,TemperatureF,Dew PointF,Humidity,Sea Level PressureIn,VisibilityMPH,Wind Direction,Wind SpeedMPH,Gust SpeedMPH,PrecipitationIn,Events,Conditions,WindDirDegrees,DateUTC
12:15 AM,26.4,21.2,81,30.41,10.0,SSW,4.6,-,N/A,,Clear,210,2013-12-31 06:15:00
12:35 AM,27.1,21.2,78,30.41,10.0,SW,4.6,-,N/A,,Clear,220,2013-12-31 06:35:00
12:55 AM,26.1,21.0,81,30.41,10.0,SSW,6.9,-,N/A,,Clear,210,2013-12-31 06:55:00
1:15 AM,28.8,21.7,75,30.41,10.0,SW,4.6,-,N/A,,Clear,220,2013-12-31 07:15:00
1:35 AM,26.8,20.1,76,30.40,10.0,WSW,4.6,-,N/A,,Clear,250,2013-12-31 07:35:00
1:55 AM,28.0,21.6,77,30.41,10.0,WSW,3.5,-,N/A,,Clear,250,2013-12-31 07:55:00
2:15 AM,23.7,19.6,84,30.41,10.0,Calm,Calm,-,N/A,,Clear,0,2013-12-31 08:15:00
2:35 AM,23.2,19.4,85,30.41,10.0,SSW,4.6,-,N/A,,Clear,210,2013-12-31 08:35:00
2:55 AM,25.9,20.5,80,30.40,10.0,SSW,5.8,-,N/A,,Clear,200,2013-12-31 08:55:00
3:15 AM,26.1,20.3,79,30.40,10.0,SW,5.8,-,N/A,,Clear,230,2013-12-31 09:15:00
3:35 AM,26.2,21.0,81,30.40,10.0,WSW,4.6,-,N/A,,Clear,240,2013-12-31 09:35:00
3:55 AM,25.3,20.3,81,30.40,10.0,SW,6.9,-,N/A,,Clear,230,2013-12-31 09:55:00
4:15 AM,24.6,20.5,84,30.40,10.0,SW,5.8,-,N/A,,Clear,220,2013-12-31 10:15:00
4:35 AM,24.4,20.5,85,30.39,10.0,SW,6.9,-,N/A,,Clear,220,2013-12-31 10:35:00
4:55 AM,25.3,21.2,84,30.39,10.0,SW,3.5,-,N/A,,Clear,220,2013-12-31 10:55:00
5:15 AM,26.8,21.9,82,30.38,10.0,West,8.1,-,N/A,,Clear,270,2013-12-31 11:15:00
5:35 AM,27.0,21.2,79,30.38,10.0,WSW,9.2,-,N/A,,Clear,250,2013-12-31 11:35:00
5:55 AM,25.0,21.0,85,30.37,10.0,SSW,6.9,-,N/A,,Clear,210,2013-12-31 11:55:00
6:15 AM,25.5,21.0,83,30.37,10.0,SW,4.6,-,N/A,,Clear,230,2013-12-31 12:15:00
6:35 AM,26.1,21.2,82,30.38,10.0,South,6.9,-,N/A,,Clear,190,2013-12-31 12:35:00
6:55 AM,25.9,21.2,82,30.37,10.0,SSW,4.6,-,N/A,,Clear,210,2013-12-31 12:55:00
7:15 AM,26.2,21.2,81,30.38,10.0,SW,6.9,-,N/A,,Clear,220,2013-12-31 13:15:00
7:35 AM,25.9,20.8,81,30.38,10.0,SSW,8.1,-,N/A,,Clear,210,2013-12-31 13:35:00
7:55 AM,25.3,20.7,82,30.38,10.0,SSW,6.9,-,N/A,,Clear,210,2013-12-31 13:55:00
8:15 AM,26.2,21.0,81,30.39,10.0,WSW,8.1,-,N/A,,Clear,250,2013-12-31 14:15:00
8:35 AM,30.7,23.0,73,30.39,10.0,SW,8.1,-,N/A,,Clear,230,2013-12-31 14:35:00
8:55 AM,34.9,25.2,68,30.39,10.0,SW,4.6,-,N/A,,Clear,230,2013-12-31 14:55:00
9:15 AM,40.3,24.6,54,30.39,10.0,SSW,4.6,-,N/A,,Clear,200,2013-12-31 15:15:00
9:35 AM,45.0,24.8,45,30.39,10.0,SSW,5.8,-,N/A,,Clear,210,2013-12-31 15:35:00
9:55 AM,46.6,24.3,42,30.40,10.0,SSW,5.8,-,N/A,,Clear,200,2013-12-31 15:55:00
10:15 AM,48.7,24.4,39,30.40,10.0,South,5.8,-,N/A,,Clear,180,2013-12-31 16:15:00
10:35 AM,50.2,23.5,35,30.40,10.0,SSW,10.4,-,N/A,,Clear,200,2013-12-31 16:35:00
10:55 AM,51.8,23.4,33,30.39,10.0,SSW,8.1,-,N/A,,Clear,200,2013-12-31 16:55:00
11:15 AM,53.2,23.9,32,30.39,10.0,South,10.4,-,N/A,,Clear,180,2013-12-31 17:15:00
11:35 AM,54.9,24.1,30,30.38,10.0,South,8.1,-,N/A,,Clear,180,2013-12-31 17:35:00
11:55 AM,56.5,24.1,29,30.36,10.0,SW,10.4,-,N/A,,Clear,220,2013-12-31 17:55:00
12:15 PM,57.0,23.7,28,30.35,10.0,SW,12.7,17.3,N/A,,Clear,230,2013-12-31 18:15:00
12:35 PM,57.7,23.7,27,30.34,10.0,WSW,10.4,19.6,N/A,,Clear,250,2013-12-31 18:35:00
12:55 PM,58.1,23.2,26,30.33,10.0,SW,12.7,21.9,N/A,,Clear,230,2013-12-31 18:55:00
1:15 PM,59.0,22.8,25,30.32,10.0,WSW,13.8,-,N/A,,Clear,240,2013-12-31 19:15:00
1:35 PM,59.0,22.6,25,30.30,10.0,SW,11.5,21.9,N/A,,Clear,220,2013-12-31 19:35:00
1:55 PM,59.4,22.6,24,30.29,10.0,SW,12.7,20.7,N/A,,Clear,230,2013-12-31 19:55:00
2:15 PM,59.0,23.2,25,30.28,10.0,WSW,11.5,-,N/A,,Clear,240,2013-12-31 20:15:00
2:35 PM,59.2,23.4,25,30.27,10.0,WSW,15.0,21.9,N/A,,Clear,240,2013-12-31 20:35:00
2:55 PM,59.0,23.2,25,30.27,10.0,SW,15.0,20.7,N/A,,Clear,230,2013-12-31 20:55:00
3:15 PM,59.4,23.4,25,30.26,10.0,WSW,15.0,19.6,N/A,,Clear,240,2013-12-31 21:15:00
3:35 PM,59.2,23.9,26,30.25,10.0,SW,16.1,-,N/A,,Clear,230,2013-12-31 21:35:00
3:55 PM,59.0,24.3,26,30.25,10.0,SW,15.0,18.4,N/A,,Clear,230,2013-12-31 21:55:00
4:15 PM,59.0,24.6,27,30.25,10.0,SW,12.7,17.3,N/A,,Clear,230,2013-12-31 22:15:00
4:35 PM,58.5,24.1,27,30.25,10.0,SW,12.7,17.3,N/A,,Clear,220,2013-12-31 22:35:00
4:55 PM,58.3,24.3,27,30.25,10.0,SSW,11.5,18.4,N/A,,Clear,210,2013-12-31 22:55:00
5:15 PM,57.2,24.3,28,30.25,10.0,SSW,10.4,-,N/A,,Clear,200,2013-12-31 23:15:00
5:35 PM,55.6,24.4,30,30.25,10.0,SSW,10.4,-,N/A,,Clear,210,2013-12-31 23:35:00
5:55 PM,52.9,24.6,33,30.24,10.0,SSW,9.2,-,N/A,,Clear,200,2013-12-31 23:55:00
6:15 PM,51.1,24.8,36,30.25,10.0,SSW,9.2,-,N/A,,Clear,200,2014-01-01 00:15:00
6:35 PM,49.3,25.2,39,30.24,10.0,SSW,8.1,-,N/A,,Clear,200,2014-01-01 00:35:00
6:55 PM,47.3,25.3,42,30.25,10.0,SSW,6.9,-,N/A,,Clear,210,2014-01-01 00:55:00
7:15 PM,46.8,25.5,43,30.25,10.0,SSW,8.1,-,N/A,,Clear,210,2014-01-01 01:15:00
7:35 PM,42.3,24.1,49,30.25,10.0,Calm,Calm,-,N/A,,Clear,0,2014-01-01 01:35:00
7:55 PM,43.5,25.2,48,30.25,10.0,Calm,Calm,-,N/A,,Clear,0,2014-01-01 01:55:00
8:15 PM,44.4,25.2,47,30.26,10.0,Calm,Calm,-,N/A,,Clear,0,2014-01-01 02:15:00
8:35 PM,42.8,24.8,49,30.26,10.0,Calm,Calm,-,N/A,,Clear,0,2014-01-01 02:35:00
8:55 PM,42.1,24.8,50,30.26,10.0,Calm,Calm,-,N/A,,Clear,0,2014-01-01 02:55:00
9:15 PM,40.5,24.8,54,30.25,10.0,Calm,Calm,-,N/A,,Clear,0,2014-01-01 03:15:00
9:35 PM,41.5,25.0,52,30.26,10.0,Calm,Calm,-,N/A,,Clear,0,2014-01-01 03:35:00
9:55 PM,39.7,25.9,58,30.25,10.0,SW,8.1,-,N/A,,Clear,220,2014-01-01 03:55:00
10:15 PM,43.3,26.4,51,30.24,10.0,SW,10.4,-,N/A,,Clear,230,2014-01-01 04:15:00
10:35 PM,43.5,26.2,51,30.24,10.0,South,4.6,-,N/A,,Clear,190,2014-01-01 04:35:00
10:55 PM,40.5,25.7,56,30.24,10.0,SW,5.8,-,N/A,,Clear,230,2014-01-01 04:55:00
11:15 PM,41.9,26.1,53,30.24,10.0,WSW,6.9,-,N/A,,Clear,240,2014-01-01 05:15:00
11:35 PM,41.9,25.9,53,30.24,10.0,WSW,6.9,-,N/A,,Clear,240,2014-01-01 05:35:00
11:55 PM,38.5,25.9,61,30.23,10.0,SW,5.8,-,N/A,,Clear,230,2014-01-01 05:55:00